Latest Weather Observations for Flinders Island Airport

IDT60801

Issued at 7:21 am EST Friday 14 June 2024 (issued every 10 minutes, with the page automatically refreshed every 10 minutes)

About weather observations | Map of weather stations | Latest weather observations for TAS | Other Formats
Station Details ID: 099005 Name: FLINDERS ISLAND AIRPORT Lat: -40.09 Lon: 148.00 Height: 9.0 m
Data from the previous 72 hours. | See also: Recent months at Flinders Island Airport
Date/Time
EST
Temp
°C
App
Temp
°C
Dew
Point
°C
Rel
Hum
%
Delta-T
°C
Wind Press
QNH
hPa
Press
MSL
hPa
Rain since
9am
mm
Dir  Spd
km/h
Gust
km/h
Spd
kts
Gust
kts
14/07:00am 8.7 6.4 7.6 93 0.5 ESE 9 11 5 6 1023.3 1023.3 0.0
14/06:30am 9.3 6.6 8.8 97 0.2 ESE 13 17 7 9 1023.2 1023.2 0.0
14/06:00am 9.5 7.3 9.4 99 0.0 ESE 11 17 6 9 1023.1 1023.1 0.0
14/05:30am 8.6 6.6 8.6 100 0.0 ESE 9 13 5 7 1023.1 1023.1 0.0
14/05:00am 8.3 6.2 8.3 100 0.0 ESE 9 11 5 6 1022.8 1022.8 0.0
14/04:30am 7.6 5.3 7.6 100 0.0 ESE 9 13 5 7 1022.7 1022.7 0.0
14/04:00am 7.3 6.3 7.2 99 0.0 ESE 2 7 1 4 1022.7 1022.7 0.0
14/03:30am 7.6 5.9 7.6 100 0.0 ESE 6 9 3 5 1022.7 1022.7 0.0
14/03:00am 7.3 5.3 7.2 99 0.0 E 7 9 4 5 1022.9 1022.9 0.0
14/02:30am 8.2 6.5 8.2 100 0.0 E 7 9 4 5 1023.0 1023.0 0.0
14/02:00am 7.9 5.7 7.9 100 0.0 SSE 9 9 5 5 1023.1 1023.1 0.0
14/01:30am 5.0 1.4 5.0 100 0.0 ENE 13 13 7 7 1023.1 1023.1 0.0
14/01:00am 4.1 1.5 4.0 99 0.0 ENE 7 9 4 5 1023.1 1023.1 0.0
14/12:30am 3.6 0.9 3.5 99 0.0 NE 7 9 4 5 1023.1 1023.1 0.0
14/12:00am 3.8 0.3 3.7 99 0.0 NE 11 13 6 7 1023.3 1023.3 0.0
 
Date/Time
EST
Temp
°C
App
Temp
°C
Dew
Point
°C
Rel
Hum
%
Delta-T
°C
Wind Press
QNH
hPa
Press
MSL
hPa
Rain since
9am
mm
Dir  Spd
km/h
Gust
km/h
Spd
kts
Gust
kts
13/11:30pm 3.4 0.2 3.3 99 0.0 NE 9 13 5 7 1023.2 1023.2 0.0
13/11:00pm 3.4 -0.1 3.3 99 0.0 ENE 11 13 6 7 1023.3 1023.3 0.0
13/10:30pm 3.8 0.3 3.7 99 0.0 NE 11 11 6 6 1023.3 1023.3 0.0
13/10:00pm 3.6 0.1 3.5 99 0.0 ENE 11 13 6 7 1023.2 1023.2 0.0
13/09:30pm 3.9 0.5 3.8 99 0.0 ENE 11 13 6 7 1023.3 1023.3 0.0
13/09:00pm 4.1 0.3 4.0 99 0.0 ENE 13 15 7 8 1023.3 1023.3 0.0
13/08:30pm 4.2 0.4 4.1 99 0.0 NE 13 13 7 7 1023.3 1023.3 0.0
13/08:00pm 4.6 1.3 4.5 99 0.0 ENE 11 13 6 7 1023.0 1023.0 0.0
13/07:30pm 4.6 1.7 4.5 99 0.0 NE 9 11 5 6 1023.1 1023.1 0.0
13/07:00pm 4.6 1.3 4.5 99 0.0 NE 11 13 6 7 1022.9 1022.9 0.0
13/06:30pm 5.6 2.8 5.3 98 0.1 NE 9 11 5 6 1022.7 1022.7 0.0
13/06:00pm 5.7 2.4 4.7 93 0.4 NE 11 13 6 7 1022.5 1022.5 0.0
13/05:30pm 7.4 4.8 4.0 79 1.5 NE 7 9 4 5 1022.2 1022.2 0.0
13/05:00pm 8.6 6.2 4.2 74 1.9 NNE 6 7 3 4 1021.8 1021.8 0.0
13/04:30pm 10.2 7.7 5.0 70 2.3 E 7 9 4 5 1021.3 1021.3 0.0
13/04:00pm 11.0 8.6 5.1 67 2.7 SE 7 11 4 6 1021.1 1021.1 0.0
13/03:30pm 11.7 8.8 4.7 62 3.2 SSE 9 11 5 6 1021.1 1021.1 0.0
13/03:00pm 11.9 8.7 4.9 62 3.2 SSW 11 13 6 7 1020.9 1020.9 0.0
13/02:30pm 11.9 8.6 4.6 61 3.3 SSW 11 13 6 7 1020.7 1020.7 0.0
13/02:00pm 12.1 9.1 3.9 57 3.7 SSW 9 11 5 6 1020.4 1020.4 0.0
13/01:30pm 12.4 8.9 5.6 63 3.2 SSW 13 13 7 7 1020.7 1020.7 0.0
13/01:00pm 12.3 9.3 4.3 58 3.6 SSW 9 11 5 6 1020.9 1020.9 0.0
13/12:30pm 12.3 9.6 5.7 64 3.1 SSW 9 11 5 6 1021.2 1021.2 0.0
13/12:00pm 12.5 10.4 6.5 67 2.8 SSW 7 9 4 5 1021.3 1021.3 0.0
13/11:30am 12.2 10.8 8.9 80 1.6 ENE 6 9 3 5 1021.7 1021.7 0.0
13/11:00am 10.2 8.9 10.1 99 0.1 NE 7 9 4 5 1021.9 1021.9 0.0
13/10:30am 8.1 6.0 8.1 100 0.0 ENE 9 11 5 6 1022.2 1022.2 0.0
13/10:00am 6.8 4.4 6.8 100 0.0 NE 9 13 5 7 1022.2 1022.2 0.0
13/09:30am 5.4 2.3 5.4 100 0.0 NE 11 13 6 7 1021.9 1021.9 0.0
13/09:00am 3.9 0.1 3.9 100 0.0 ENE 13 17 7 9 1021.6 1021.6 0.0
13/08:30am 2.2 -2.3 2.1 99 0.0 NE 15 17 8 9 1021.5 1021.5 0.0
13/08:00am 1.9 -3.0 1.8 99 0.0 ENE 17 19 9 10 1021.1 1021.1 0.0
13/07:30am 1.8 -2.8 1.7 99 0.0 NE 15 17 8 9 1021.1 1021.1 0.0
13/07:00am 1.0 -3.7 0.9 99 0.0 ENE 15 17 8 9 1020.6 1020.6 0.0
13/06:30am 0.8 -3.5 0.7 99 0.0 ENE 13 15 7 8 1020.6 1020.6 0.0
13/06:00am 0.5 -4.3 0.4 99 0.0 ENE 15 17 8 9 1020.1 1020.1 0.0
13/05:30am 0.3 -4.5 0.2 99 0.0 ENE 15 15 8 8 1020.1 1020.1 0.0
13/05:00am 0.8 -4.3 0.7 99 0.0 ENE 17 19 9 10 1019.9 1019.9 0.0
13/04:30am 0.8 -3.9 0.7 99 0.0 ENE 15 17 8 9 1020.1 1020.1 0.0
13/04:00am 0.5 -3.5 0.4 99 0.0 ENE 11 15 6 8 1020.1 1020.1 0.0
13/03:30am 1.6 -2.2 1.5 99 0.0 NE 11 15 6 8 1019.8 1019.8 0.0
13/03:00am 1.1 -3.2 1.0 99 0.0 NE 13 15 7 8 1019.9 1019.9 0.0
13/02:30am 1.7 -2.1 1.6 99 0.0 NE 11 15 6 8 1020.2 1020.2 0.0
13/02:00am 1.5 -3.5 1.4 99 0.0 ENE 17 19 9 10 1020.3 1020.3 0.0
13/01:30am 1.8 -1.3 1.1 95 0.3 E 7 11 4 6 1020.4 1020.4 0.0
13/01:00am 2.9 -0.1 1.1 88 0.7 NE 6 9 3 5 1019.8 1019.8 0.0
13/12:30am 4.0 0.5 1.0 81 1.2 E 9 15 5 8 1019.5 1019.5 0.0
13/12:00am 5.7 2.7 2.0 77 1.5 E 7 9 4 5 1019.2 1019.2 0.0
 
Date/Time
EST
Temp
°C
App
Temp
°C
Dew
Point
°C
Rel
Hum
%
Delta-T
°C
Wind Press
QNH
hPa
Press
MSL
hPa
Rain since
9am
mm
Dir  Spd
km/h
Gust
km/h
Spd
kts
Gust
kts
12/11:30pm 6.9 1.4 1.8 70 2.1 S 20 26 11 14 1019.3 1019.3 0.0
12/11:00pm 10.8 4.7 2.9 58 3.4 SSW 24 32 13 17 1019.3 1019.3 0.0
12/10:30pm 10.8 5.5 2.9 58 3.4 SSW 20 26 11 14 1018.9 1018.9 0.0
12/10:00pm 10.8 5.1 2.9 58 3.4 S 22 28 12 15 1018.6 1018.6 0.0
12/09:30pm 11.1 6.1 3.6 60 3.3 SW 19 26 10 14 1018.4 1018.4 0.0
12/09:00pm 11.3 5.3 3.1 57 3.6 SSW 24 32 13 17 1018.4 1018.4 0.0
12/08:30pm 11.0 4.9 4.9 66 2.8 WSW 26 32 14 17 1018.0 1018.0 0.0
12/08:00pm 11.1 5.5 3.4 59 3.4 SW 22 30 12 16 1017.7 1017.8 0.0
12/07:30pm 10.9 5.0 3.7 61 3.2 SW 24 32 13 17 1017.5 1017.6 0.0
12/07:00pm 10.6 5.3 3.2 60 3.2 WSW 20 28 11 15 1017.3 1017.4 0.0
12/06:30pm 10.5 4.6 3.8 63 3.0 WSW 24 28 13 15 1016.9 1017.0 0.0
12/06:00pm 10.9 3.7 3.0 58 3.4 WSW 30 35 16 19 1016.7 1016.8 0.0
12/05:30pm 10.8 3.2 2.9 58 3.4 WSW 32 37 17 20 1016.2 1016.3 0.0
12/05:00pm 10.8 3.2 2.9 58 3.4 SW 32 39 17 21 1015.7 1015.8 0.0
12/04:30pm 10.9 3.1 2.7 57 3.5 SW 33 41 18 22 1015.1 1015.2 0.0
12/04:00pm 11.2 3.4 3.0 57 3.6 SW 33 43 18 23 1014.6 1014.7 0.0
12/03:30pm 11.4 3.1 2.2 53 3.9 SW 35 43 19 23 1014.0 1014.1 0.0
12/03:00pm 11.7 4.0 3.2 56 3.7 SW 33 41 18 22 1013.4 1013.5 0.0
12/02:30pm 11.7 3.8 2.2 52 4.1 SW 33 39 18 21 1013.0 1013.1 0.0
12/02:00pm 11.2 3.4 2.8 56 3.6 SW 33 46 18 25 1012.7 1012.8 0.0
12/01:30pm 11.9 3.5 1.8 50 4.3 SW 35 48 19 26 1012.3 1012.4 0.0
12/01:00pm 11.9 3.5 1.5 49 4.4 SSW 35 48 19 26 1011.9 1012.0 0.0
12/12:30pm 11.4 2.9 0.8 48 4.4 SW 35 48 19 26 1011.8 1011.9 0.0
12/12:00pm 11.6 3.2 1.5 50 4.3 SW 35 48 19 26 1011.5 1011.6 0.0
12/11:30am 11.2 2.3 0.6 48 4.4 SW 37 50 20 27 1011.0 1011.1 0.0
12/11:00am 11.1 3.0 1.1 50 4.2 SSW 33 46 18 25 1010.7 1010.7 0.0
12/10:30am 11.0 2.6 1.3 51 4.1 SSW 35 46 19 25 1010.4 1010.4 0.0
12/10:00am 11.0 1.8 1.3 51 4.1 SSW 39 50 21 27 1010.3 1010.3 0.0
12/09:30am 10.7 0.6 0.2 48 4.3 SSW 43 52 23 28 1009.3 1009.3 0.0
12/09:00am 10.7 2.0 2.0 55 3.7 SW 37 52 20 28 1008.5 1008.5 23.4
12/08:30am 10.5 0.6 1.6 54 3.7 SSW 43 57 23 31 1007.8 1007.8 23.4
12/08:00am 10.3 0.3 2.2 57 3.4 SSW 44 56 24 30 1006.6 1006.6 23.4
12/07:30am 10.3 -0.8 2.2 57 3.4 SSW 50 63 27 34 1005.9 1005.9 23.4
12/07:00am 10.5 -0.9 3.1 60 3.2 SSW 52 67 28 36 1004.6 1004.6 23.4
12/06:30am 10.4 -0.8 4.1 65 2.8 SW 52 67 28 36 1003.4 1003.4 23.4
12/06:00am 10.6 -0.1 4.7 67 2.7 SW 50 61 27 33 1002.4 1002.4 23.4
12/05:40am 10.5 -0.7 4.0 64 2.9 WSW 52 74 28 40 1001.8 1001.8 23.4
12/05:30am 10.5 -0.7 4.0 64 2.9 SW 52 63 28 34 1001.8 1001.8 23.4
12/05:00am 10.6 -0.6 4.1 64 2.9 SW 52 63 28 34 1001.1 1001.1 23.4
12/04:47am 10.6 0.0 4.9 68 2.6 WSW 50 69 27 37 1000.7 1000.7 23.4
12/04:30am 10.8 0.0 5.8 71 2.3 WSW 52 67 28 36 1000.4 1000.4 23.4
12/04:00am 10.9 0.8 7.2 78 1.8 WSW 50 61 27 33 1000.0 1000.0 23.4
12/03:34am 10.9 0.9 9.3 90 0.8 WSW 52 70 28 38 999.7 999.7 23.2
12/03:30am 11.1 1.5 9.5 90 0.8 WSW 50 61 27 33 999.7 999.7 23.2
12/03:24am 10.8 0.4 9.2 90 0.8 WSW 54 69 29 37 999.6 999.6 23.2
12/03:13am 10.2 -1.7 10.1 99 0.1 WSW 63 82 34 44 999.7 999.7 23.2
12/03:03am 9.9 0.8 9.8 99 0.1 W 48 80 26 43 999.7 999.7 22.8
12/03:01am 10.1 2.0 10.0 99 0.1 W 43 72 23 39 999.8 999.8 22.8
12/03:00am 10.4 2.7 10.2 99 0.1 W 41 57 22 31 999.9 999.9 22.8
12/02:56am 10.9 3.7 10.7 99 0.1 W 39 57 21 31 999.8 999.8 22.8
12/02:52am 10.9 3.4 10.7 99 0.1 W 41 56 22 30 999.7 999.7 22.6
12/02:33am 10.3 -0.6 8.9 91 0.7 W 56 89 30 48 999.9 999.9 22.6
12/02:31am 11.5 0.8 8.2 80 1.6 WSW 54 74 29 40 999.8 999.8 21.8
12/02:30am 11.9 1.1 7.8 76 2.0 WSW 54 63 29 34 999.8 999.8 21.8
12/02:00am 12.3 0.5 7.4 72 2.4 WSW 59 74 32 40 999.6 999.6 21.8
12/01:44am 12.4 0.9 7.1 70 2.6 W 57 76 31 41 999.6 999.6 21.8
12/01:30am 12.5 1.0 7.0 69 2.6 W 57 72 31 39 999.7 999.7 21.8
12/01:00am 12.6 1.4 7.5 71 2.5 W 56 70 30 38 999.8 999.8 21.8
12/12:30am 12.7 0.9 7.4 70 2.6 W 59 74 32 40 1000.0 1000.0 21.8
12/12:13am 12.5 0.7 7.4 71 2.5 WSW 59 78 32 42 999.7 999.7 21.8
12/12:00am 12.5 0.3 7.2 70 2.6 W 61 76 33 41 999.7 999.7 21.8
 
Date/Time
EST
Temp
°C
App
Temp
°C
Dew
Point
°C
Rel
Hum
%
Delta-T
°C
Wind Press
QNH
hPa
Press
MSL
hPa
Rain since
9am
mm
Dir  Spd
km/h
Gust
km/h
Spd
kts
Gust
kts
11/11:30pm 12.6 -0.3 9.1 79 1.8 WSW 67 80 36 43 999.5 999.5 21.8
11/11:06pm 12.4 1.0 10.5 88 1.0 W 61 80 33 43 999.3 999.3 21.8
11/11:01pm 12.2 1.2 11.9 98 0.2 W 61 78 33 42 999.4 999.4 21.8
11/11:00pm 12.2 1.2 12.0 99 0.1 W 61 78 33 42 999.3 999.3 21.8
11/10:43pm 12.2 2.6 12.0 99 0.1 W 54 78 29 42 999.1 999.1 21.8
11/10:34pm 12.8 4.1 12.6 99 0.1 W 50 69 27 37 998.9 998.9 21.4
11/10:30pm 12.7 3.6 12.5 99 0.1 W 52 69 28 37 999.0 999.0 21.4
11/10:27pm 12.7 3.7 12.7 100 0.0 W 52 67 28 36 999.0 999.0 21.4
11/10:04pm 12.2 4.1 12.0 99 0.1 WNW 46 65 25 35 998.7 998.7 19.6
11/10:00pm 12.5 4.5 12.3 99 0.1 WNW 46 65 25 35 999.0 999.0 18.8
11/09:54pm 12.6 4.6 12.4 99 0.1 WNW 46 69 25 37 999.0 999.0 18.8
11/09:30pm 12.5 5.1 12.3 99 0.1 WNW 43 65 23 35 999.0 999.0 15.4
11/09:26pm 12.6 4.6 12.4 99 0.1 WNW 46 65 25 35 999.2 999.2 14.8
11/09:24pm 12.6 4.6 12.4 99 0.1 WNW 46 65 25 35 999.2 999.2 14.6
11/09:13pm 12.4 5.7 12.2 99 0.1 WNW 39 61 21 33 999.2 999.2 14.2
11/09:10pm 12.5 5.4 12.3 99 0.1 WNW 41 59 22 32 999.3 999.3 14.0
11/09:01pm 12.6 5.2 12.4 99 0.1 WNW 43 57 23 31 999.6 999.6 13.8
11/09:00pm 12.5 5.1 12.3 99 0.1 WNW 43 57 23 31 999.6 999.6 13.8
11/08:43pm 12.8 5.5 11.4 91 0.7 WNW 41 59 22 32 1000.0 1000.0 13.6
11/08:37pm 13.5 6.4 10.9 84 1.4 WNW 39 59 21 32 999.8 999.8 12.8
11/08:30pm 13.4 7.5 11.3 87 1.1 WNW 33 50 18 27 999.9 999.9 12.8
11/08:00pm 12.7 6.9 11.4 92 0.7 WNW 33 52 18 28 1000.7 1000.7 12.8
11/07:52pm 12.3 6.0 10.9 91 0.7 WNW 35 48 19 26 1000.8 1000.8 12.8
11/07:36pm 11.9 3.9 10.3 90 0.8 WNW 43 76 23 41 1000.7 1000.7 12.8
11/07:30pm 14.0 6.6 9.8 76 2.2 W 39 59 21 32 1000.5 1000.5 11.8
11/07:24pm 13.9 6.4 9.3 74 2.3 W 39 59 21 32 1000.6 1000.6 11.8
11/07:00pm 13.8 5.6 10.4 80 1.8 W 44 54 24 29 1000.7 1000.7 11.8
11/06:30pm 13.7 5.7 10.3 80 1.8 WNW 43 57 23 31 1000.8 1000.8 11.8
11/06:00pm 13.6 5.5 10.2 80 1.8 W 43 59 23 32 1000.8 1000.8 11.8
11/05:55pm 13.3 6.1 10.5 83 1.5 WNW 39 59 21 32 1000.7 1000.7 11.8
11/05:30pm 13.2 6.4 10.7 85 1.3 WNW 37 52 20 28 1000.8 1000.8 11.8
11/05:00pm 12.9 5.8 9.7 81 1.6 WNW 37 50 20 27 1000.7 1000.7 11.8
11/04:30pm 12.3 6.3 12.1 99 0.1 WNW 35 48 19 26 1000.7 1000.7 11.8
11/04:20pm 11.5 5.3 11.3 99 0.1 WNW 35 54 19 29 1000.7 1000.7 11.8
11/04:12pm 11.2 4.9 11.0 99 0.1 WNW 35 48 19 26 1000.7 1000.7 11.8
11/04:00pm 11.2 2.0 11.0 99 0.1 W 50 74 27 40 1000.2 1000.2 11.8
11/03:55pm 11.2 0.9 11.0 99 0.1 W 56 82 30 44 1000.8 1000.8 11.6
11/03:53pm 11.3 1.4 11.1 99 0.1 W 54 82 29 44 1000.6 1000.6 11.4
11/03:50pm 12.4 3.2 12.2 99 0.1 W 52 82 28 44 1001.0 1001.0 11.2
11/03:49pm 13.0 4.8 12.8 99 0.1 WNW 48 82 26 44 1001.0 1001.0 11.2
11/03:44pm 13.4 6.3 13.4 100 0.0 WNW 43 63 23 34 1000.6 1000.6 11.2
11/03:30pm 13.0 6.2 13.0 100 0.0 WNW 41 54 22 29 1000.4 1000.4 11.2
11/03:02pm 10.7 4.3 10.7 100 0.0 WNW 35 46 19 25 1000.9 1000.9 11.2
11/03:00pm 10.7 3.9 10.7 100 0.0 WNW 37 46 20 25 1000.8 1000.8 11.2
11/02:37pm 10.9 2.0 10.7 99 0.1 WNW 48 74 26 40 1001.3 1001.3 9.4
11/02:33pm 13.1 5.2 12.8 98 0.2 WNW 46 69 25 37 1001.2 1001.2 7.8
11/02:30pm 13.1 4.8 12.6 97 0.3 WNW 48 63 26 34 1000.9 1000.9 7.8
11/02:22pm 12.7 5.1 12.5 99 0.1 NW 44 63 24 34 1000.6 1000.6 7.8
11/02:00pm 12.0 4.4 11.8 99 0.1 NW 43 59 23 32 1000.7 1000.7 7.8
11/01:38pm 12.5 5.1 12.5 100 0.0 WNW 43 61 23 33 1001.1 1001.1 7.6
11/01:30pm 12.0 3.9 12.0 100 0.0 WNW 46 63 25 34 1001.1 1001.1 7.4
11/01:14pm 11.9 4.3 11.9 100 0.0 WNW 43 61 23 33 1001.6 1001.6 7.2
11/01:00pm 11.3 2.6 11.3 100 0.0 WNW 48 67 26 36 1001.9 1001.9 7.0
11/12:53pm 12.5 5.1 12.3 99 0.1 NW 43 67 23 36 1002.2 1002.2 6.0
11/12:52pm 13.6 6.9 13.4 99 0.1 NW 41 57 22 31 1002.0 1002.0 5.2
11/12:33pm 13.7 5.7 13.5 99 0.1 NW 48 70 26 38 1001.5 1001.5 3.6
11/12:30pm 13.8 6.2 13.6 99 0.1 NW 46 63 25 34 1001.5 1001.5 3.4
11/12:28pm 13.8 6.6 13.6 99 0.1 NW 44 63 24 34 1001.5 1001.5 3.4
11/12:27pm 13.8 6.2 13.6 99 0.1 NW 46 63 25 34 1001.5 1001.5 3.4
11/12:00pm 13.2 5.0 13.0 99 0.1 NW 48 69 26 37 1002.4 1002.4 3.0
11/11:51am 13.3 6.9 13.1 99 0.1 NW 39 59 21 32 1002.6 1002.6 2.8
11/11:44am 13.3 7.6 13.1 99 0.1 NNW 35 54 19 29 1002.6 1002.6 2.6
11/11:30am 13.2 8.1 13.0 99 0.1 NNW 32 46 17 25 1002.9 1002.9 2.4
11/11:00am 12.9 6.7 12.7 99 0.1 NNW 37 65 20 35 1003.5 1003.5 1.8
11/10:38am 13.0 7.8 12.8 99 0.1 NNW 32 50 17 27 1004.2 1004.2 1.2
11/10:32am 13.0 8.2 12.8 99 0.1 NNW 30 46 16 25 1004.4 1004.4 1.0
11/10:30am 13.0 8.2 12.8 99 0.1 NNW 30 46 16 25 1004.4 1004.4 0.8
11/10:00am 12.9 7.7 12.7 99 0.1 NNW 32 54 17 29 1005.2 1005.2 0.8
11/09:56am 12.8 7.3 12.6 99 0.1 NNW 33 54 18 29 1005.1 1005.1 0.8
11/09:50am 12.7 7.8 12.5 99 0.1 NNW 30 48 16 26 1005.2 1005.2 0.8
11/09:47am 12.7 8.2 12.5 99 0.1 NNW 28 39 15 21 1005.2 1005.2 0.8
11/09:30am 12.5 7.9 12.3 99 0.1 NNW 28 48 15 26 1006.0 1006.0 0.6
11/09:23am 12.5 7.9 12.3 99 0.1 N 28 52 15 28 1006.0 1006.0 0.2
11/09:12am 12.5 7.9 12.3 99 0.1 N 28 46 15 25 1006.0 1006.0 0.2
11/09:00am 12.4 7.8 12.2 99 0.1 N 28 44 15 24 1005.9 1005.9 9.8
11/08:32am 12.4 7.8 12.2 99 0.1 N 28 48 15 26 1006.5 1006.5 9.2
11/08:30am 12.3 8.0 12.1 99 0.1 N 26 43 14 23 1006.5 1006.5 9.2
11/08:12am 12.2 7.5 12.0 99 0.1 N 28 48 15 26 1006.7 1006.7 8.8
11/08:00am 12.2 8.3 12.0 99 0.1 N 24 35 13 19 1006.9 1006.9 8.4
11/07:30am 12.1 8.5 11.9 99 0.1 N 22 39 12 21 1007.7 1007.7 7.4

Other formats

Comma delimited format used in spreadsheet applications
http://www.bom.gov.au/fwo/IDT60801/IDT60801.94980.axf

JavaScript Object Notation format (JSON) in row-major order
http://www.bom.gov.au/fwo/IDT60801/IDT60801.94980.json

Data quality

Most of these data are generated automatically and are frequently updated. Quality checks on data are not normally performed. It is possible for incorrect values to appear. Refer to information at About Latest Weather Observations and please check the disclaimer before using these data.